sensor_id;sensor_type;location;lat;lon;timestamp;P1;durP1;ratioP1;P2;durP2;ratioP2
45734;SDS011;31446;49.632;8.328;2023-07-29T00:14:13;7.78;;;5.35;;
45734;SDS011;31446;49.632;8.328;2023-07-29T00:29:19;7.30;;;5.15;;
45734;SDS011;31446;49.632;8.328;2023-07-29T00:44:26;8.70;;;4.30;;
45734;SDS011;31446;49.632;8.328;2023-07-29T00:59:34;6.88;;;3.22;;
45734;SDS011;31446;49.632;8.328;2023-07-29T01:14:41;6.47;;;3.83;;
45734;SDS011;31446;49.632;8.328;2023-07-29T01:29:56;6.53;;;3.90;;
45734;SDS011;31446;49.632;8.328;2023-07-29T01:45:04;4.40;;;3.00;;
45734;SDS011;31446;49.632;8.328;2023-07-29T02:00:11;8.60;;;3.05;;
45734;SDS011;31446;49.632;8.328;2023-07-29T02:15:18;8.30;;;3.58;;
45734;SDS011;31446;49.632;8.328;2023-07-29T02:30:25;5.20;;;3.60;;
45734;SDS011;31446;49.632;8.328;2023-07-29T02:45:31;3.97;;;3.55;;
45734;SDS011;31446;49.632;8.328;2023-07-29T03:00:37;9.70;;;3.53;;
45734;SDS011;31446;49.632;8.328;2023-07-29T03:15:44;4.10;;;3.25;;
45734;SDS011;31446;49.632;8.328;2023-07-29T03:30:51;7.32;;;4.15;;
45734;SDS011;31446;49.632;8.328;2023-07-29T03:45:58;8.05;;;4.40;;
45734;SDS011;31446;49.632;8.328;2023-07-29T04:01:04;10.63;;;4.35;;
45734;SDS011;31446;49.632;8.328;2023-07-29T04:16:11;5.03;;;4.13;;
45734;SDS011;31446;49.632;8.328;2023-07-29T04:31:17;4.78;;;4.25;;
45734;SDS011;31446;49.632;8.328;2023-07-29T04:46:23;5.80;;;4.35;;
45734;SDS011;31446;49.632;8.328;2023-07-29T05:01:30;7.60;;;4.07;;
45734;SDS011;31446;49.632;8.328;2023-07-29T05:16:37;7.47;;;3.70;;
45734;SDS011;31446;49.632;8.328;2023-07-29T05:31:43;5.20;;;3.78;;
45734;SDS011;31446;49.632;8.328;2023-07-29T05:46:49;6.13;;;4.43;;
45734;SDS011;31446;49.632;8.328;2023-07-29T06:01:56;6.15;;;3.58;;
45734;SDS011;31446;49.632;8.328;2023-07-29T06:17:02;7.30;;;3.28;;
45734;SDS011;31446;49.632;8.328;2023-07-29T06:32:09;3.85;;;2.85;;
45734;SDS011;31446;49.632;8.328;2023-07-29T06:47:16;2.22;;;2.03;;
45734;SDS011;31446;49.632;8.328;2023-07-29T07:02:22;4.00;;;1.92;;
45734;SDS011;31446;49.632;8.328;2023-07-29T07:17:29;6.10;;;2.47;;
45734;SDS011;31446;49.632;8.328;2023-07-29T07:32:35;3.83;;;2.30;;
45734;SDS011;31446;49.632;8.328;2023-07-29T07:47:42;6.50;;;1.35;;
45734;SDS011;31446;49.632;8.328;2023-07-29T08:02:48;4.65;;;0.98;;
45734;SDS011;31446;49.632;8.328;2023-07-29T08:17:55;6.22;;;1.13;;
45734;SDS011;31446;49.632;8.328;2023-07-29T08:33:01;1.52;;;1.00;;
45734;SDS011;31446;49.632;8.328;2023-07-29T08:48:08;1.20;;;1.10;;
45734;SDS011;31446;49.632;8.328;2023-07-29T09:03:16;3.25;;;0.90;;
45734;SDS011;31446;49.632;8.328;2023-07-29T09:18:23;2.40;;;0.90;;
45734;SDS011;31446;49.632;8.328;2023-07-29T09:33:33;0.90;;;0.90;;
45734;SDS011;31446;49.632;8.328;2023-07-29T09:48:42;4.03;;;1.15;;
45734;SDS011;31446;49.632;8.328;2023-07-29T10:03:50;4.55;;;1.17;;
45734;SDS011;31446;49.632;8.328;2023-07-29T10:18:59;1.92;;;1.30;;
45734;SDS011;31446;49.632;8.328;2023-07-29T10:34:07;5.28;;;2.00;;
45734;SDS011;31446;49.632;8.328;2023-07-29T10:49:17;1.98;;;1.10;;
45734;SDS011;31446;49.632;8.328;2023-07-29T11:04:45;1.33;;;1.17;;
45734;SDS011;31446;49.632;8.328;2023-07-29T11:19:52;2.95;;;1.00;;
45734;SDS011;31446;49.632;8.328;2023-07-29T11:35:04;2.15;;;1.30;;
45734;SDS011;31446;49.632;8.328;2023-07-29T11:50:13;1.63;;;1.30;;
45734;SDS011;31446;49.632;8.328;2023-07-29T12:05:20;1.45;;;1.35;;
45734;SDS011;31446;49.632;8.328;2023-07-29T12:20:30;1.65;;;1.10;;
45734;SDS011;31446;49.632;8.328;2023-07-29T12:35:40;1.20;;;1.10;;
45734;SDS011;31446;49.632;8.328;2023-07-29T12:50:47;1.83;;;0.88;;
45734;SDS011;31446;49.632;8.328;2023-07-29T13:05:54;8.68;;;1.10;;
45734;SDS011;31446;49.632;8.328;2023-07-29T13:21:01;1.48;;;1.30;;
45734;SDS011;31446;49.632;8.328;2023-07-29T13:36:07;1.63;;;0.85;;
45734;SDS011;31446;49.632;8.328;2023-07-29T13:51:14;1.03;;;1.00;;
45734;SDS011;31446;49.632;8.328;2023-07-29T14:06:20;2.88;;;1.45;;
45734;SDS011;31446;49.632;8.328;2023-07-29T14:21:27;1.40;;;1.30;;
45734;SDS011;31446;49.632;8.328;2023-07-29T14:36:33;1.53;;;1.40;;
45734;SDS011;31446;49.632;8.328;2023-07-29T14:51:40;4.83;;;2.60;;
45734;SDS011;31446;49.632;8.328;2023-07-29T15:06:46;1.60;;;1.30;;
45734;SDS011;31446;49.632;8.328;2023-07-29T15:21:53;1.30;;;1.20;;
45734;SDS011;31446;49.632;8.328;2023-07-29T15:36:59;1.40;;;1.30;;
45734;SDS011;31446;49.632;8.328;2023-07-29T15:52:07;2.53;;;1.30;;
45734;SDS011;31446;49.632;8.328;2023-07-29T16:07:16;2.80;;;1.48;;
45734;SDS011;31446;49.632;8.328;2023-07-29T16:22:23;1.73;;;1.10;;
45734;SDS011;31446;49.632;8.328;2023-07-29T16:37:29;1.88;;;1.50;;
45734;SDS011;31446;49.632;8.328;2023-07-29T16:52:36;1.52;;;1.42;;
45734;SDS011;31446;49.632;8.328;2023-07-29T17:07:42;1.48;;;1.38;;
45734;SDS011;31446;49.632;8.328;2023-07-29T17:22:49;2.28;;;1.35;;
45734;SDS011;31446;49.632;8.328;2023-07-29T17:37:55;5.60;;;1.63;;
45734;SDS011;31446;49.632;8.328;2023-07-29T17:53:02;1.90;;;1.45;;
45734;SDS011;31446;49.632;8.328;2023-07-29T18:08:08;2.97;;;1.45;;
45734;SDS011;31446;49.632;8.328;2023-07-29T18:23:14;4.15;;;1.20;;
45734;SDS011;31446;49.632;8.328;2023-07-29T18:38:24;2.10;;;1.50;;
45734;SDS011;31446;49.632;8.328;2023-07-29T18:53:30;1.33;;;1.23;;
45734;SDS011;31446;49.632;8.328;2023-07-29T19:08:37;3.92;;;1.40;;
45734;SDS011;31446;49.632;8.328;2023-07-29T19:23:43;1.45;;;1.35;;
45734;SDS011;31446;49.632;8.328;2023-07-29T19:38:50;4.93;;;1.63;;
45734;SDS011;31446;49.632;8.328;2023-07-29T19:53:56;1.83;;;1.70;;
45734;SDS011;31446;49.632;8.328;2023-07-29T20:09:03;2.22;;;1.83;;
45734;SDS011;31446;49.632;8.328;2023-07-29T20:24:09;3.53;;;2.30;;
45734;SDS011;31446;49.632;8.328;2023-07-29T20:39:16;7.90;;;2.15;;
45734;SDS011;31446;49.632;8.328;2023-07-29T20:54:22;3.22;;;1.98;;
45734;SDS011;31446;49.632;8.328;2023-07-29T21:09:29;4.28;;;1.90;;
45734;SDS011;31446;49.632;8.328;2023-07-29T21:24:36;7.15;;;2.03;;
45734;SDS011;31446;49.632;8.328;2023-07-29T21:39:42;4.50;;;1.50;;
45734;SDS011;31446;49.632;8.328;2023-07-29T21:54:59;4.22;;;1.90;;
45734;SDS011;31446;49.632;8.328;2023-07-29T22:10:08;2.33;;;2.05;;
45734;SDS011;31446;49.632;8.328;2023-07-29T22:25:14;4.38;;;1.88;;
45734;SDS011;31446;49.632;8.328;2023-07-29T22:40:21;1.40;;;1.27;;
45734;SDS011;31446;49.632;8.328;2023-07-29T22:55:27;0.85;;;0.85;;
45734;SDS011;31446;49.632;8.328;2023-07-29T23:10:34;3.10;;;1.08;;
45734;SDS011;31446;49.632;8.328;2023-07-29T23:25:40;2.58;;;0.63;;
45734;SDS011;31446;49.632;8.328;2023-07-29T23:40:47;0.95;;;0.63;;
45734;SDS011;31446;49.632;8.328;2023-07-29T23:55:53;1.25;;;0.63;;
